sensor_id;sensor_type;location;lat;lon;timestamp;P1;durP1;ratioP1;P2;durP2;ratioP2
29504;SDS011;16452;54.174;12.092;2023-02-28T00:00:31;12.98;;;6.15;;
29504;SDS011;16452;54.174;12.092;2023-02-28T00:02:58;10.25;;;5.40;;
29504;SDS011;16452;54.174;12.092;2023-02-28T00:05:25;10.80;;;5.70;;
29504;SDS011;16452;54.174;12.092;2023-02-28T00:07:52;9.57;;;5.45;;
29504;SDS011;16452;54.174;12.092;2023-02-28T00:10:19;12.02;;;5.50;;
29504;SDS011;16452;54.174;12.092;2023-02-28T00:12:50;10.52;;;5.65;;
29504;SDS011;16452;54.174;12.092;2023-02-28T00:15:17;9.15;;;5.30;;
29504;SDS011;16452;54.174;12.092;2023-02-28T00:17:43;9.25;;;5.40;;
29504;SDS011;16452;54.174;12.092;2023-02-28T00:20:09;11.15;;;5.20;;
29504;SDS011;16452;54.174;12.092;2023-02-28T00:22:41;9.75;;;5.22;;
29504;SDS011;16452;54.174;12.092;2023-02-28T00:25:10;13.70;;;5.07;;
29504;SDS011;16452;54.174;12.092;2023-02-28T00:27:40;12.23;;;5.65;;
29504;SDS011;16452;54.174;12.092;2023-02-28T00:30:09;10.30;;;5.10;;
29504;SDS011;16452;54.174;12.092;2023-02-28T00:32:41;8.73;;;4.80;;
29504;SDS011;16452;54.174;12.092;2023-02-28T00:35:07;10.95;;;5.43;;
29504;SDS011;16452;54.174;12.092;2023-02-28T00:37:34;10.75;;;4.75;;
29504;SDS011;16452;54.174;12.092;2023-02-28T00:40:00;7.93;;;4.78;;
29504;SDS011;16452;54.174;12.092;2023-02-28T00:42:29;9.30;;;4.60;;
29504;SDS011;16452;54.174;12.092;2023-02-28T00:44:55;13.40;;;5.13;;
29504;SDS011;16452;54.174;12.092;2023-02-28T00:47:21;11.57;;;4.82;;
29504;SDS011;16452;54.174;12.092;2023-02-28T00:49:46;10.35;;;4.50;;
29504;SDS011;16452;54.174;12.092;2023-02-28T00:52:12;10.35;;;5.13;;
29504;SDS011;16452;54.174;12.092;2023-02-28T00:54:38;11.75;;;5.47;;
29504;SDS011;16452;54.174;12.092;2023-02-28T00:57:03;14.45;;;5.78;;
29504;SDS011;16452;54.174;12.092;2023-02-28T00:59:32;12.63;;;6.47;;
29504;SDS011;16452;54.174;12.092;2023-02-28T01:01:58;10.63;;;6.22;;
29504;SDS011;16452;54.174;12.092;2023-02-28T01:04:23;12.85;;;6.43;;
29504;SDS011;16452;54.174;12.092;2023-02-28T01:06:49;11.25;;;6.93;;
29504;SDS011;16452;54.174;12.092;2023-02-28T01:09:15;11.20;;;6.30;;
29504;SDS011;16452;54.174;12.092;2023-02-28T01:11:41;12.98;;;6.43;;
29504;SDS011;16452;54.174;12.092;2023-02-28T01:14:10;11.82;;;6.32;;
29504;SDS011;16452;54.174;12.092;2023-02-28T01:16:40;12.90;;;6.22;;
29504;SDS011;16452;54.174;12.092;2023-02-28T01:19:05;11.63;;;6.35;;
29504;SDS011;16452;54.174;12.092;2023-02-28T01:21:31;11.57;;;6.47;;
29504;SDS011;16452;54.174;12.092;2023-02-28T01:23:57;13.73;;;6.93;;
29504;SDS011;16452;54.174;12.092;2023-02-28T01:26:23;13.25;;;6.82;;
29504;SDS011;16452;54.174;12.092;2023-02-28T01:28:50;15.43;;;6.82;;
29504;SDS011;16452;54.174;12.092;2023-02-28T01:31:17;14.75;;;7.18;;
29504;SDS011;16452;54.174;12.092;2023-02-28T01:33:44;11.05;;;6.90;;
29504;SDS011;16452;54.174;12.092;2023-02-28T01:36:11;12.80;;;6.78;;
29504;SDS011;16452;54.174;12.092;2023-02-28T01:38:46;16.40;;;7.00;;
29504;SDS011;16452;54.174;12.092;2023-02-28T01:41:18;17.88;;;7.07;;
29504;SDS011;16452;54.174;12.092;2023-02-28T01:43:57;10.38;;;7.43;;
29504;SDS011;16452;54.174;12.092;2023-02-28T01:46:33;14.70;;;6.90;;
29504;SDS011;16452;54.174;12.092;2023-02-28T01:49:05;14.27;;;7.65;;
29504;SDS011;16452;54.174;12.092;2023-02-28T01:51:51;11.88;;;6.75;;
29504;SDS011;16452;54.174;12.092;2023-02-28T01:54:26;9.88;;;6.75;;
29504;SDS011;16452;54.174;12.092;2023-02-28T01:57:01;14.25;;;7.30;;
29504;SDS011;16452;54.174;12.092;2023-02-28T01:59:42;13.13;;;7.15;;
29504;SDS011;16452;54.174;12.092;2023-02-28T02:02:15;10.70;;;6.05;;
29504;SDS011;16452;54.174;12.092;2023-02-28T02:04:46;10.13;;;7.25;;
29504;SDS011;16452;54.174;12.092;2023-02-28T02:07:22;12.35;;;6.95;;
29504;SDS011;16452;54.174;12.092;2023-02-28T02:09:56;10.65;;;6.40;;
29504;SDS011;16452;54.174;12.092;2023-02-28T02:12:35;10.82;;;6.47;;
29504;SDS011;16452;54.174;12.092;2023-02-28T02:15:21;10.60;;;6.78;;
29504;SDS011;16452;54.174;12.092;2023-02-28T02:18:09;18.77;;;7.40;;
29504;SDS011;16452;54.174;12.092;2023-02-28T02:35:40;12.52;;;7.65;;
29504;SDS011;16452;54.174;12.092;2023-02-28T02:44:04;11.45;;;7.63;;
29504;SDS011;16452;54.174;12.092;2023-02-28T02:46:44;15.52;;;7.38;;
29504;SDS011;16452;54.174;12.092;2023-02-28T02:49:15;12.23;;;7.13;;
29504;SDS011;16452;54.174;12.092;2023-02-28T02:51:51;13.00;;;7.20;;
29504;SDS011;16452;54.174;12.092;2023-02-28T02:54:22;13.60;;;7.15;;
29504;SDS011;16452;54.174;12.092;2023-02-28T02:56:53;11.95;;;6.85;;
29504;SDS011;16452;54.174;12.092;2023-02-28T02:59:25;11.30;;;6.80;;
29504;SDS011;16452;54.174;12.092;2023-02-28T03:01:55;14.63;;;6.95;;
29504;SDS011;16452;54.174;12.092;2023-02-28T03:04:26;13.80;;;6.57;;
29504;SDS011;16452;54.174;12.092;2023-02-28T03:06:59;10.48;;;6.38;;
29504;SDS011;16452;54.174;12.092;2023-02-28T03:09:25;13.95;;;7.20;;
29504;SDS011;16452;54.174;12.092;2023-02-28T03:11:52;11.82;;;7.50;;
29504;SDS011;16452;54.174;12.092;2023-02-28T03:14:36;14.75;;;8.00;;
29504;SDS011;16452;54.174;12.092;2023-02-28T03:20:27;15.02;;;7.97;;
29504;SDS011;16452;54.174;12.092;2023-02-28T03:26:34;15.85;;;7.80;;
29504;SDS011;16452;54.174;12.092;2023-02-28T03:34:40;13.68;;;8.70;;
29504;SDS011;16452;54.174;12.092;2023-02-28T03:37:16;14.98;;;8.70;;
29504;SDS011;16452;54.174;12.092;2023-02-28T03:39:47;15.25;;;8.25;;
29504;SDS011;16452;54.174;12.092;2023-02-28T03:42:27;11.07;;;7.75;;
29504;SDS011;16452;54.174;12.092;2023-02-28T03:47:35;14.32;;;6.85;;
29504;SDS011;16452;54.174;12.092;2023-02-28T03:50:10;13.25;;;7.20;;
29504;SDS011;16452;54.174;12.092;2023-02-28T03:55:30;14.25;;;6.55;;
29504;SDS011;16452;54.174;12.092;2023-02-28T03:58:08;13.48;;;6.60;;
29504;SDS011;16452;54.174;12.092;2023-02-28T04:00:45;12.95;;;7.22;;
29504;SDS011;16452;54.174;12.092;2023-02-28T04:03:17;13.18;;;6.80;;
29504;SDS011;16452;54.174;12.092;2023-02-28T04:06:01;10.15;;;6.80;;
29504;SDS011;16452;54.174;12.092;2023-02-28T04:08:28;9.35;;;6.85;;
29504;SDS011;16452;54.174;12.092;2023-02-28T04:11:04;12.07;;;6.57;;
29504;SDS011;16452;54.174;12.092;2023-02-28T04:13:46;10.73;;;6.53;;
29504;SDS011;16452;54.174;12.092;2023-02-28T04:16:11;12.52;;;6.88;;
29504;SDS011;16452;54.174;12.092;2023-02-28T04:18:38;11.98;;;6.40;;
29504;SDS011;16452;54.174;12.092;2023-02-28T04:21:05;12.13;;;6.68;;
29504;SDS011;16452;54.174;12.092;2023-02-28T04:23:32;13.25;;;7.00;;
29504;SDS011;16452;54.174;12.092;2023-02-28T04:25:58;11.48;;;6.65;;
29504;SDS011;16452;54.174;12.092;2023-02-28T04:28:24;9.77;;;6.70;;
29504;SDS011;16452;54.174;12.092;2023-02-28T04:30:56;9.57;;;6.85;;
29504;SDS011;16452;54.174;12.092;2023-02-28T04:33:24;13.48;;;7.15;;
29504;SDS011;16452;54.174;12.092;2023-02-28T04:38:45;12.93;;;6.50;;
29504;SDS011;16452;54.174;12.092;2023-02-28T04:41:11;12.98;;;6.65;;
29504;SDS011;16452;54.174;12.092;2023-02-28T04:43:38;13.70;;;6.43;;
29504;SDS011;16452;54.174;12.092;2023-02-28T04:46:04;10.88;;;5.72;;
29504;SDS011;16452;54.174;12.092;2023-02-28T04:48:31;9.40;;;6.00;;
29504;SDS011;16452;54.174;12.092;2023-02-28T04:51:02;10.30;;;6.47;;
29504;SDS011;16452;54.174;12.092;2023-02-28T04:53:30;12.48;;;6.68;;
29504;SDS011;16452;54.174;12.092;2023-02-28T04:55:56;14.90;;;6.18;;
29504;SDS011;16452;54.174;12.092;2023-02-28T04:58:22;11.98;;;6.57;;
29504;SDS011;16452;54.174;12.092;2023-02-28T05:00:49;9.43;;;6.15;;
29504;SDS011;16452;54.174;12.092;2023-02-28T05:03:18;10.25;;;6.25;;
29504;SDS011;16452;54.174;12.092;2023-02-28T05:05:45;13.65;;;6.72;;
29504;SDS011;16452;54.174;12.092;2023-02-28T05:08:11;14.05;;;7.20;;
29504;SDS011;16452;54.174;12.092;2023-02-28T05:10:37;10.80;;;6.32;;
29504;SDS011;16452;54.174;12.092;2023-02-28T05:13:03;12.13;;;6.90;;
29504;SDS011;16452;54.174;12.092;2023-02-28T05:15:29;12.27;;;6.47;;
29504;SDS011;16452;54.174;12.092;2023-02-28T05:17:55;12.20;;;6.95;;
29504;SDS011;16452;54.174;12.092;2023-02-28T05:20:20;11.40;;;6.88;;
29504;SDS011;16452;54.174;12.092;2023-02-28T05:22:46;9.15;;;6.57;;
29504;SDS011;16452;54.174;12.092;2023-02-28T05:25:13;13.93;;;7.25;;
29504;SDS011;16452;54.174;12.092;2023-02-28T05:27:43;14.82;;;7.20;;
29504;SDS011;16452;54.174;12.092;2023-02-28T05:30:11;12.55;;;6.93;;
29504;SDS011;16452;54.174;12.092;2023-02-28T05:32:37;11.07;;;7.88;;
29504;SDS011;16452;54.174;12.092;2023-02-28T05:35:04;12.52;;;8.00;;
29504;SDS011;16452;54.174;12.092;2023-02-28T05:37:31;11.32;;;7.32;;
29504;SDS011;16452;54.174;12.092;2023-02-28T05:39:56;10.48;;;7.75;;
29504;SDS011;16452;54.174;12.092;2023-02-28T05:42:22;11.90;;;8.05;;
29504;SDS011;16452;54.174;12.092;2023-02-28T05:44:48;11.82;;;8.40;;
29504;SDS011;16452;54.174;12.092;2023-02-28T05:47:13;12.63;;;8.35;;
29504;SDS011;16452;54.174;12.092;2023-02-28T05:49:40;13.95;;;8.88;;
29504;SDS011;16452;54.174;12.092;2023-02-28T05:52:07;17.58;;;9.55;;
29504;SDS011;16452;54.174;12.092;2023-02-28T05:54:33;14.55;;;9.20;;
29504;SDS011;16452;54.174;12.092;2023-02-28T05:56:59;15.27;;;9.60;;
29504;SDS011;16452;54.174;12.092;2023-02-28T05:59:24;16.13;;;9.52;;
29504;SDS011;16452;54.174;12.092;2023-02-28T06:01:50;17.58;;;9.73;;
29504;SDS011;16452;54.174;12.092;2023-02-28T06:04:18;16.40;;;9.15;;
29504;SDS011;16452;54.174;12.092;2023-02-28T06:06:46;12.15;;;8.55;;
29504;SDS011;16452;54.174;12.092;2023-02-28T06:09:13;14.05;;;9.32;;
29504;SDS011;16452;54.174;12.092;2023-02-28T06:11:39;15.10;;;9.32;;
29504;SDS011;16452;54.174;12.092;2023-02-28T06:14:04;13.90;;;9.25;;
29504;SDS011;16452;54.174;12.092;2023-02-28T06:16:32;17.80;;;8.85;;
29504;SDS011;16452;54.174;12.092;2023-02-28T06:19:00;13.13;;;7.95;;
29504;SDS011;16452;54.174;12.092;2023-02-28T06:21:28;13.43;;;8.35;;
29504;SDS011;16452;54.174;12.092;2023-02-28T06:23:54;16.67;;;10.77;;
29504;SDS011;16452;54.174;12.092;2023-02-28T06:26:22;19.10;;;10.30;;
29504;SDS011;16452;54.174;12.092;2023-02-28T06:28:48;17.65;;;11.38;;
29504;SDS011;16452;54.174;12.092;2023-02-28T06:31:15;18.13;;;10.73;;
29504;SDS011;16452;54.174;12.092;2023-02-28T06:33:43;14.25;;;9.55;;
29504;SDS011;16452;54.174;12.092;2023-02-28T06:36:10;14.00;;;8.55;;
29504;SDS011;16452;54.174;12.092;2023-02-28T06:38:38;18.65;;;8.50;;
29504;SDS011;16452;54.174;12.092;2023-02-28T06:41:04;12.85;;;7.40;;
29504;SDS011;16452;54.174;12.092;2023-02-28T06:43:32;14.65;;;7.82;;
29504;SDS011;16452;54.174;12.092;2023-02-28T06:46:01;17.42;;;7.85;;
29504;SDS011;16452;54.174;12.092;2023-02-28T06:48:29;11.95;;;7.85;;
29504;SDS011;16452;54.174;12.092;2023-02-28T06:53:36;10.65;;;7.85;;
29504;SDS011;16452;54.174;12.092;2023-02-28T06:56:05;13.65;;;8.20;;
29504;SDS011;16452;54.174;12.092;2023-02-28T06:58:34;13.93;;;7.85;;
29504;SDS011;16452;54.174;12.092;2023-02-28T07:01:00;14.60;;;8.90;;
29504;SDS011;16452;54.174;12.092;2023-02-28T07:03:27;14.10;;;8.23;;
29504;SDS011;16452;54.174;12.092;2023-02-28T07:05:52;14.00;;;9.05;;
29504;SDS011;16452;54.174;12.092;2023-02-28T07:08:18;16.65;;;9.00;;
29504;SDS011;16452;54.174;12.092;2023-02-28T07:10:44;12.90;;;9.07;;
29504;SDS011;16452;54.174;12.092;2023-02-28T07:13:10;15.82;;;9.60;;
29504;SDS011;16452;54.174;12.092;2023-02-28T07:15:36;12.88;;;8.80;;
29504;SDS011;16452;54.174;12.092;2023-02-28T07:18:02;16.02;;;9.07;;
29504;SDS011;16452;54.174;12.092;2023-02-28T07:20:29;14.90;;;8.95;;
29504;SDS011;16452;54.174;12.092;2023-02-28T07:22:55;15.70;;;8.93;;
29504;SDS011;16452;54.174;12.092;2023-02-28T07:25:28;21.02;;;9.00;;
29504;SDS011;16452;54.174;12.092;2023-02-28T07:27:54;14.85;;;9.30;;
29504;SDS011;16452;54.174;12.092;2023-02-28T07:30:21;16.15;;;9.65;;
29504;SDS011;16452;54.174;12.092;2023-02-28T07:32:47;19.92;;;9.20;;
29504;SDS011;16452;54.174;12.092;2023-02-28T07:35:13;13.52;;;9.15;;
29504;SDS011;16452;54.174;12.092;2023-02-28T07:37:40;14.70;;;8.90;;
29504;SDS011;16452;54.174;12.092;2023-02-28T07:40:09;16.80;;;9.23;;
29504;SDS011;16452;54.174;12.092;2023-02-28T07:42:36;18.30;;;8.77;;
29504;SDS011;16452;54.174;12.092;2023-02-28T07:45:03;14.90;;;9.68;;
29504;SDS011;16452;54.174;12.092;2023-02-28T07:47:30;12.48;;;9.48;;
29504;SDS011;16452;54.174;12.092;2023-02-28T07:49:56;16.60;;;9.13;;
29504;SDS011;16452;54.174;12.092;2023-02-28T07:52:23;13.70;;;9.40;;
29504;SDS011;16452;54.174;12.092;2023-02-28T07:54:49;15.20;;;8.80;;
29504;SDS011;16452;54.174;12.092;2023-02-28T07:57:16;14.82;;;8.65;;
29504;SDS011;16452;54.174;12.092;2023-02-28T07:59:42;16.20;;;9.27;;
29504;SDS011;16452;54.174;12.092;2023-02-28T08:02:14;17.73;;;9.18;;
29504;SDS011;16452;54.174;12.092;2023-02-28T08:04:42;18.33;;;9.30;;
29504;SDS011;16452;54.174;12.092;2023-02-28T08:07:16;16.10;;;9.10;;
29504;SDS011;16452;54.174;12.092;2023-02-28T08:09:43;16.55;;;10.00;;
29504;SDS011;16452;54.174;12.092;2023-02-28T08:12:09;15.23;;;8.85;;
29504;SDS011;16452;54.174;12.092;2023-02-28T08:14:36;19.05;;;9.18;;
29504;SDS011;16452;54.174;12.092;2023-02-28T08:17:02;13.48;;;8.68;;
29504;SDS011;16452;54.174;12.092;2023-02-28T08:19:29;16.58;;;8.63;;
29504;SDS011;16452;54.174;12.092;2023-02-28T08:21:56;13.90;;;8.43;;
29504;SDS011;16452;54.174;12.092;2023-02-28T08:24:23;20.92;;;8.95;;
29504;SDS011;16452;54.174;12.092;2023-02-28T08:26:49;19.23;;;9.55;;
29504;SDS011;16452;54.174;12.092;2023-02-28T08:29:15;14.02;;;9.18;;
29504;SDS011;16452;54.174;12.092;2023-02-28T08:31:46;15.93;;;9.00;;
29504;SDS011;16452;54.174;12.092;2023-02-28T08:34:13;16.63;;;9.48;;
29504;SDS011;16452;54.174;12.092;2023-02-28T08:36:41;14.30;;;9.52;;
29504;SDS011;16452;54.174;12.092;2023-02-28T08:39:09;18.48;;;10.18;;
29504;SDS011;16452;54.174;12.092;2023-02-28T08:41:35;19.02;;;10.32;;
29504;SDS011;16452;54.174;12.092;2023-02-28T08:44:02;16.15;;;9.65;;
29504;SDS011;16452;54.174;12.092;2023-02-28T08:46:28;17.00;;;9.90;;
29504;SDS011;16452;54.174;12.092;2023-02-28T08:48:54;17.42;;;10.45;;
29504;SDS011;16452;54.174;12.092;2023-02-28T08:51:24;16.10;;;9.27;;
29504;SDS011;16452;54.174;12.092;2023-02-28T08:53:53;14.50;;;9.27;;
29504;SDS011;16452;54.174;12.092;2023-02-28T08:56:21;14.43;;;8.75;;
29504;SDS011;16452;54.174;12.092;2023-02-28T08:58:47;12.80;;;9.35;;
29504;SDS011;16452;54.174;12.092;2023-02-28T09:03:44;14.40;;;9.27;;
29504;SDS011;16452;54.174;12.092;2023-02-28T09:06:11;14.32;;;9.23;;
29504;SDS011;16452;54.174;12.092;2023-02-28T09:08:39;16.05;;;8.82;;
29504;SDS011;16452;54.174;12.092;2023-02-28T09:11:06;16.73;;;8.65;;
29504;SDS011;16452;54.174;12.092;2023-02-28T09:13:33;14.63;;;7.90;;
29504;SDS011;16452;54.174;12.092;2023-02-28T09:16:00;22.23;;;8.02;;
29504;SDS011;16452;54.174;12.092;2023-02-28T09:18:33;15.57;;;8.10;;
29504;SDS011;16452;54.174;12.092;2023-02-28T09:21:02;11.73;;;7.93;;
29504;SDS011;16452;54.174;12.092;2023-02-28T09:23:30;11.20;;;7.35;;
29504;SDS011;16452;54.174;12.092;2023-02-28T09:26:00;15.32;;;7.75;;
29504;SDS011;16452;54.174;12.092;2023-02-28T09:28:26;12.73;;;7.97;;
29504;SDS011;16452;54.174;12.092;2023-02-28T09:30:53;15.00;;;7.53;;
29504;SDS011;16452;54.174;12.092;2023-02-28T09:33:19;15.07;;;7.15;;
29504;SDS011;16452;54.174;12.092;2023-02-28T09:35:47;11.48;;;6.68;;
29504;SDS011;16452;54.174;12.092;2023-02-28T09:38:14;17.17;;;7.95;;
29504;SDS011;16452;54.174;12.092;2023-02-28T09:43:18;9.73;;;5.90;;
29504;SDS011;16452;54.174;12.092;2023-02-28T09:45:50;9.43;;;5.22;;
29504;SDS011;16452;54.174;12.092;2023-02-28T09:48:45;8.50;;;5.18;;
29504;SDS011;16452;54.174;12.092;2023-02-28T09:53:59;11.82;;;4.95;;
29504;SDS011;16452;54.174;12.092;2023-02-28T09:56:28;14.60;;;5.30;;
29504;SDS011;16452;54.174;12.092;2023-02-28T10:02:17;8.30;;;5.13;;
29504;SDS011;16452;54.174;12.092;2023-02-28T10:05:30;12.27;;;5.43;;
29504;SDS011;16452;54.174;12.092;2023-02-28T10:08:13;9.73;;;4.80;;
29504;SDS011;16452;54.174;12.092;2023-02-28T10:10:47;9.32;;;4.30;;
29504;SDS011;16452;54.174;12.092;2023-02-28T10:16:40;8.95;;;5.70;;
29504;SDS011;16452;54.174;12.092;2023-02-28T10:22:11;11.30;;;6.10;;
29504;SDS011;16452;54.174;12.092;2023-02-28T10:24:53;10.40;;;5.95;;
29504;SDS011;16452;54.174;12.092;2023-02-28T10:27:26;11.27;;;6.20;;
29504;SDS011;16452;54.174;12.092;2023-02-28T10:29:58;8.32;;;5.43;;
29504;SDS011;16452;54.174;12.092;2023-02-28T10:32:27;10.52;;;5.85;;
29504;SDS011;16452;54.174;12.092;2023-02-28T10:35:10;10.88;;;6.30;;
29504;SDS011;16452;54.174;12.092;2023-02-28T10:37:46;8.07;;;5.20;;
29504;SDS011;16452;54.174;12.092;2023-02-28T10:42:57;10.80;;;5.65;;
29504;SDS011;16452;54.174;12.092;2023-02-28T10:45:32;9.65;;;4.50;;
29504;SDS011;16452;54.174;12.092;2023-02-28T10:50:33;8.15;;;3.40;;
29504;SDS011;16452;54.174;12.092;2023-02-28T11:01:34;6.43;;;2.60;;
29504;SDS011;16452;54.174;12.092;2023-02-28T11:04:00;5.10;;;2.70;;
29504;SDS011;16452;54.174;12.092;2023-02-28T11:06:31;5.40;;;2.90;;
29504;SDS011;16452;54.174;12.092;2023-02-28T11:09:00;5.63;;;1.80;;
29504;SDS011;16452;54.174;12.092;2023-02-28T11:11:44;5.43;;;2.10;;
29504;SDS011;16452;54.174;12.092;2023-02-28T11:14:18;6.25;;;2.00;;
29504;SDS011;16452;54.174;12.092;2023-02-28T11:17:01;3.53;;;2.00;;
29504;SDS011;16452;54.174;12.092;2023-02-28T11:19:45;4.57;;;1.90;;
29504;SDS011;16452;54.174;12.092;2023-02-28T11:22:19;4.95;;;1.80;;
29504;SDS011;16452;54.174;12.092;2023-02-28T11:24:50;4.43;;;1.60;;
29504;SDS011;16452;54.174;12.092;2023-02-28T11:29:55;6.13;;;2.28;;
29504;SDS011;16452;54.174;12.092;2023-02-28T11:32:25;3.97;;;1.65;;
29504;SDS011;16452;54.174;12.092;2023-02-28T11:35:03;9.63;;;2.53;;
29504;SDS011;16452;54.174;12.092;2023-02-28T11:37:42;7.32;;;2.15;;
29504;SDS011;16452;54.174;12.092;2023-02-28T11:40:14;2.75;;;1.88;;
29504;SDS011;16452;54.174;12.092;2023-02-28T11:54:13;4.40;;;1.83;;
29504;SDS011;16452;54.174;12.092;2023-02-28T12:11:41;7.10;;;2.25;;
29504;SDS011;16452;54.174;12.092;2023-02-28T12:14:30;4.60;;;1.90;;
29504;SDS011;16452;54.174;12.092;2023-02-28T12:28:49;9.88;;;3.42;;
29504;SDS011;16452;54.174;12.092;2023-02-28T12:31:36;9.05;;;4.13;;
29504;SDS011;16452;54.174;12.092;2023-02-28T12:34:12;7.93;;;3.10;;
29504;SDS011;16452;54.174;12.092;2023-02-28T12:36:43;8.50;;;3.95;;
29504;SDS011;16452;54.174;12.092;2023-02-28T12:39:33;7.18;;;3.85;;
29504;SDS011;16452;54.174;12.092;2023-02-28T12:42:12;10.18;;;3.85;;
29504;SDS011;16452;54.174;12.092;2023-02-28T12:44:49;6.30;;;3.92;;
29504;SDS011;16452;54.174;12.092;2023-02-28T12:47:30;7.28;;;3.83;;
29504;SDS011;16452;54.174;12.092;2023-02-28T12:49:57;9.57;;;3.83;;
29504;SDS011;16452;54.174;12.092;2023-02-28T12:52:51;9.80;;;3.80;;
29504;SDS011;16452;54.174;12.092;2023-02-28T12:58:45;6.68;;;3.88;;
29504;SDS011;16452;54.174;12.092;2023-02-28T13:10:03;6.50;;;3.30;;
29504;SDS011;16452;54.174;12.092;2023-02-28T13:12:32;7.25;;;3.53;;
29504;SDS011;16452;54.174;12.092;2023-02-28T13:15:02;7.78;;;3.25;;
29504;SDS011;16452;54.174;12.092;2023-02-28T13:17:36;5.38;;;2.58;;
29504;SDS011;16452;54.174;12.092;2023-02-28T13:20:19;8.15;;;4.05;;
29504;SDS011;16452;54.174;12.092;2023-02-28T13:22:48;5.38;;;2.72;;
29504;SDS011;16452;54.174;12.092;2023-02-28T13:27:54;7.32;;;3.55;;
29504;SDS011;16452;54.174;12.092;2023-02-28T13:33:25;8.20;;;4.07;;
29504;SDS011;16452;54.174;12.092;2023-02-28T13:36:22;10.68;;;3.72;;
29504;SDS011;16452;54.174;12.092;2023-02-28T13:38:55;9.25;;;3.88;;
29504;SDS011;16452;54.174;12.092;2023-02-28T13:41:46;5.22;;;2.90;;
29504;SDS011;16452;54.174;12.092;2023-02-28T13:44:13;7.60;;;3.30;;
29504;SDS011;16452;54.174;12.092;2023-02-28T13:51:50;5.57;;;3.60;;
29504;SDS011;16452;54.174;12.092;2023-02-28T13:57:43;9.88;;;5.40;;
29504;SDS011;16452;54.174;12.092;2023-02-28T14:06:07;4.97;;;3.03;;
29504;SDS011;16452;54.174;12.092;2023-02-28T14:08:52;3.90;;;2.50;;
29504;SDS011;16452;54.174;12.092;2023-02-28T14:11:43;7.65;;;3.00;;
29504;SDS011;16452;54.174;12.092;2023-02-28T14:16:59;4.80;;;2.97;;
29504;SDS011;16452;54.174;12.092;2023-02-28T14:19:29;4.80;;;3.05;;
29504;SDS011;16452;54.174;12.092;2023-02-28T14:36:25;7.72;;;3.00;;
29504;SDS011;16452;54.174;12.092;2023-02-28T14:38:58;3.88;;;1.95;;
29504;SDS011;16452;54.174;12.092;2023-02-28T14:41:34;5.40;;;2.20;;
29504;SDS011;16452;54.174;12.092;2023-02-28T14:44:13;7.88;;;2.85;;
29504;SDS011;16452;54.174;12.092;2023-02-28T14:46:53;4.05;;;1.83;;
29504;SDS011;16452;54.174;12.092;2023-02-28T14:49:41;6.10;;;2.35;;
29504;SDS011;16452;54.174;12.092;2023-02-28T14:52:23;4.00;;;1.50;;
29504;SDS011;16452;54.174;12.092;2023-02-28T14:55:01;4.57;;;1.88;;
29504;SDS011;16452;54.174;12.092;2023-02-28T14:57:40;5.72;;;2.08;;
29504;SDS011;16452;54.174;12.092;2023-02-28T15:00:21;2.33;;;1.50;;
29504;SDS011;16452;54.174;12.092;2023-02-28T15:02:54;5.47;;;2.08;;
29504;SDS011;16452;54.174;12.092;2023-02-28T15:08:12;3.45;;;1.80;;
29504;SDS011;16452;54.174;12.092;2023-02-28T15:10:44;4.97;;;1.90;;
29504;SDS011;16452;54.174;12.092;2023-02-28T15:13:20;5.32;;;1.70;;
29504;SDS011;16452;54.174;12.092;2023-02-28T15:15:49;4.60;;;1.83;;
29504;SDS011;16452;54.174;12.092;2023-02-28T15:21:28;15.13;;;5.68;;
29504;SDS011;16452;54.174;12.092;2023-02-28T15:24:05;5.78;;;1.90;;
29504;SDS011;16452;54.174;12.092;2023-02-28T15:26:50;6.20;;;2.50;;
29504;SDS011;16452;54.174;12.092;2023-02-28T15:29:23;4.30;;;1.80;;
29504;SDS011;16452;54.174;12.092;2023-02-28T15:31:56;6.57;;;2.22;;
29504;SDS011;16452;54.174;12.092;2023-02-28T15:34:34;2.92;;;1.63;;
29504;SDS011;16452;54.174;12.092;2023-02-28T15:39:52;5.13;;;1.77;;
29504;SDS011;16452;54.174;12.092;2023-02-28T15:42:21;5.43;;;2.05;;
29504;SDS011;16452;54.174;12.092;2023-02-28T15:44:53;3.97;;;1.80;;
29504;SDS011;16452;54.174;12.092;2023-02-28T15:47:19;2.72;;;1.80;;
29504;SDS011;16452;54.174;12.092;2023-02-28T15:57:50;8.93;;;3.97;;
29504;SDS011;16452;54.174;12.092;2023-02-28T16:00:20;7.25;;;2.47;;
29504;SDS011;16452;54.174;12.092;2023-02-28T16:02:49;5.78;;;2.42;;
29504;SDS011;16452;54.174;12.092;2023-02-28T16:05:23;5.03;;;1.30;;
29504;SDS011;16452;54.174;12.092;2023-02-28T16:07:57;1.98;;;1.20;;
29504;SDS011;16452;54.174;12.092;2023-02-28T16:10:26;1.00;;;0.90;;
29504;SDS011;16452;54.174;12.092;2023-02-28T16:12:55;1.48;;;0.88;;
29504;SDS011;16452;54.174;12.092;2023-02-28T16:17:53;3.10;;;1.10;;
29504;SDS011;16452;54.174;12.092;2023-02-28T16:20:24;3.75;;;1.20;;
29504;SDS011;16452;54.174;12.092;2023-02-28T16:22:53;4.60;;;1.50;;
29504;SDS011;16452;54.174;12.092;2023-02-28T16:25:22;2.58;;;1.20;;
29504;SDS011;16452;54.174;12.092;2023-02-28T16:27:53;1.92;;;1.00;;
29504;SDS011;16452;54.174;12.092;2023-02-28T16:30:26;1.80;;;1.00;;
29504;SDS011;16452;54.174;12.092;2023-02-28T16:32:56;1.95;;;1.15;;
29504;SDS011;16452;54.174;12.092;2023-02-28T16:35:22;3.33;;;1.35;;
29504;SDS011;16452;54.174;12.092;2023-02-28T16:37:49;3.85;;;1.85;;
29504;SDS011;16452;54.174;12.092;2023-02-28T16:40:20;4.35;;;1.90;;
29504;SDS011;16452;54.174;12.092;2023-02-28T16:42:50;5.07;;;1.63;;
29504;SDS011;16452;54.174;12.092;2023-02-28T16:45:22;7.10;;;1.75;;
29504;SDS011;16452;54.174;12.092;2023-02-28T16:47:50;5.57;;;2.10;;
29504;SDS011;16452;54.174;12.092;2023-02-28T16:50:18;3.90;;;2.53;;
29504;SDS011;16452;54.174;12.092;2023-02-28T16:52:49;2.55;;;1.55;;
29504;SDS011;16452;54.174;12.092;2023-02-28T16:55:17;9.40;;;4.65;;
29504;SDS011;16452;54.174;12.092;2023-02-28T16:57:43;8.82;;;4.78;;
29504;SDS011;16452;54.174;12.092;2023-02-28T17:00:14;9.05;;;4.82;;
29504;SDS011;16452;54.174;12.092;2023-02-28T17:02:40;11.80;;;5.63;;
29504;SDS011;16452;54.174;12.092;2023-02-28T17:05:06;9.55;;;5.18;;
29504;SDS011;16452;54.174;12.092;2023-02-28T17:07:39;12.93;;;5.50;;
29504;SDS011;16452;54.174;12.092;2023-02-28T17:10:16;12.85;;;5.35;;
29504;SDS011;16452;54.174;12.092;2023-02-28T17:12:46;10.40;;;5.10;;
29504;SDS011;16452;54.174;12.092;2023-02-28T17:15:13;10.55;;;4.30;;
29504;SDS011;16452;54.174;12.092;2023-02-28T17:17:42;8.88;;;4.28;;
29504;SDS011;16452;54.174;12.092;2023-02-28T17:20:13;9.00;;;4.28;;
29504;SDS011;16452;54.174;12.092;2023-02-28T17:22:55;5.55;;;3.45;;
29504;SDS011;16452;54.174;12.092;2023-02-28T17:25:22;5.65;;;3.60;;
29504;SDS011;16452;54.174;12.092;2023-02-28T17:27:49;4.78;;;3.03;;
29504;SDS011;16452;54.174;12.092;2023-02-28T17:30:20;10.80;;;4.40;;
29504;SDS011;16452;54.174;12.092;2023-02-28T17:32:49;11.60;;;4.57;;
29504;SDS011;16452;54.174;12.092;2023-02-28T17:35:15;8.05;;;4.50;;
29504;SDS011;16452;54.174;12.092;2023-02-28T17:37:41;8.18;;;4.25;;
29504;SDS011;16452;54.174;12.092;2023-02-28T17:40:12;7.43;;;4.70;;
29504;SDS011;16452;54.174;12.092;2023-02-28T17:42:40;9.23;;;4.35;;
29504;SDS011;16452;54.174;12.092;2023-02-28T17:45:07;11.23;;;4.32;;
29504;SDS011;16452;54.174;12.092;2023-02-28T17:47:33;10.65;;;4.63;;
29504;SDS011;16452;54.174;12.092;2023-02-28T17:49:59;8.43;;;4.35;;